Time;durP1;ratioP1;P1;durP2;ratioP2;P2;SDS_P1;SDS_P2;PMS_P1;PMS_P2;Temp;Humidity;BMP_temperature;BMP_pressure;BME280_temperature;BME280_humidity;BME280_pressure;Samples;Min_cycle;Max_cycle;Signal;HPM_P1;HPM_P2
2021/08/28 00:00:17;;;;;;;13.53;8.00;;;;;;;12.18;100.00;95829.00;1036605;28;20371;-73
2021/08/28 00:00:51;;;;;;;13.10;7.97;;;;;;;12.17;100.00;95835.47;1036586;28;20494;-73
2021/08/28 00:01:21;;;;;;;12.52;7.88;;;;;;;12.18;100.00;95835.19;1040681;28;20013;-73
2021/08/28 00:01:52;;;;;;;17.00;7.93;;;;;;;12.18;100.00;95834.38;1040943;28;20351;-73
2021/08/28 00:02:23;;;;;;;13.40;8.13;;;;;;;12.14;100.00;95836.03;1040960;28;20029;-73
2021/08/28 00:02:54;;;;;;;11.95;7.88;;;;;;;12.16;100.00;95841.91;1040912;28;20398;-73
2021/08/28 00:03:24;;;;;;;11.67;6.60;;;;;;;12.16;100.00;95840.03;1044785;28;20021;-74
2021/08/28 00:03:55;;;;;;;11.03;7.90;;;;;;;12.16;100.00;95836.56;1044768;28;20021;-74
2021/08/28 00:04:26;;;;;;;12.47;8.47;;;;;;;12.10;100.00;95833.13;1044758;28;20009;-74
2021/08/28 00:04:57;;;;;;;11.48;8.00;;;;;;;12.12;100.00;95839.00;1044534;28;20388;-74
2021/08/28 00:05:27;;;;;;;12.17;8.10;;;;;;;12.12;100.00;95838.19;1044610;28;20033;-75
2021/08/28 00:05:58;;;;;;;12.67;8.00;;;;;;;12.08;100.00;95829.13;1044770;28;20505;-74
2021/08/28 00:06:28;;;;;;;11.57;7.90;;;;;;;12.07;100.00;95839.03;1044779;28;20052;-74
2021/08/28 00:06:59;;;;;;;12.10;7.70;;;;;;;12.09;100.00;95834.22;1040149;28;20025;-75
2021/08/28 00:07:29;;;;;;;10.50;8.30;;;;;;;12.11;100.00;95832.03;1044656;28;20021;-74
2021/08/28 00:07:59;;;;;;;11.17;8.10;;;;;;;12.13;100.00;95829.91;1044751;28;20025;-74
2021/08/28 00:08:30;;;;;;;12.30;7.70;;;;;;;12.14;100.00;95828.00;1044628;28;20017;-74
2021/08/28 00:09:00;;;;;;;12.17;8.20;;;;;;;12.10;100.00;95832.34;1044671;28;20024;-75
2021/08/28 00:09:31;;;;;;;12.10;8.40;;;;;;;12.07;100.00;95830.19;1040606;28;20013;-74
2021/08/28 00:10:01;;;;;;;13.43;8.40;;;;;;;12.09;100.00;95828.06;1044745;28;20016;-73
2021/08/28 00:10:31;;;;;;;14.67;8.33;;;;;;;12.10;100.00;95835.00;1044731;28;20025;-74
2021/08/28 00:11:02;;;;;;;11.87;8.73;;;;;;;12.05;100.00;95838.53;1044741;28;20096;-74
2021/08/28 00:11:32;;;;;;;12.50;9.03;;;;;;;12.03;100.00;95826.50;1045115;28;20466;-74
2021/08/28 00:12:03;;;;;;;11.97;8.37;;;;;;;12.04;100.00;95828.13;1044960;28;20017;-74
2021/08/28 00:12:33;;;;;;;12.63;8.30;;;;;;;12.05;100.00;95835.06;1045056;28;20031;-73
2021/08/28 00:13:04;;;;;;;13.13;8.60;;;;;;;12.06;100.00;95832.09;1045047;28;20025;-74
2021/08/28 00:13:34;;;;;;;12.63;7.97;;;;;;;12.10;100.00;95829.66;1045037;28;20017;-74
2021/08/28 00:14:05;;;;;;;14.10;8.37;;;;;;;12.07;100.00;95822.97;1045058;28;20394;-73
2021/08/28 00:14:35;;;;;;;11.87;8.30;;;;;;;12.08;100.00;95835.31;1045036;28;20466;-74
2021/08/28 00:15:07;;;;;;;14.60;8.27;;;;;;;12.07;100.00;95825.66;1045059;28;20473;-73
2021/08/28 00:15:38;;;;;;;16.58;8.25;;;;;;;12.08;100.00;95824.59;1044708;28;20043;-74
2021/08/28 00:16:08;;;;;;;13.77;8.53;;;;;;;12.10;100.00;95827.78;1044797;28;20477;-73
2021/08/28 00:16:39;;;;;;;12.20;8.60;;;;;;;12.09;100.00;95822.72;1044760;28;20417;-74
2021/08/28 00:17:09;;;;;;;10.60;7.67;;;;;;;12.07;100.00;95833.69;1044270;28;20457;-74
2021/08/28 00:17:41;;;;;;;12.30;8.50;;;;;;;12.08;100.00;95824.59;1045005;28;20091;-73
2021/08/28 00:18:11;;;;;;;12.35;8.13;;;;;;;12.07;100.00;95820.28;1044975;28;20100;-74
2021/08/28 00:18:41;;;;;;;12.47;7.50;;;;;;;12.08;100.00;95826.44;1045039;28;20025;-74
2021/08/28 00:19:12;;;;;;;12.60;8.20;;;;;;;12.06;100.00;95821.38;1044703;28;20017;-74
2021/08/28 00:19:44;;;;;;;13.07;8.53;;;;;;;12.08;100.00;95823.75;1040445;28;20030;-74
2021/08/28 00:20:15;;;;;;;12.63;8.38;;;;;;;12.12;100.00;95830.16;1036501;28;20034;-74
2021/08/28 00:20:46;;;;;;;12.93;7.72;;;;;;;12.14;100.00;95823.44;1036915;28;20030;-74
2021/08/28 00:21:16;;;;;;;13.87;8.30;;;;;;;12.14;100.00;95820.78;1040946;28;20029;-74
2021/08/28 00:21:47;;;;;;;11.13;7.80;;;;;;;12.12;100.00;95822.91;1040952;28;20014;-74
2021/08/28 00:22:17;;;;;;;11.37;7.67;;;;;;;12.08;100.00;95823.75;1044645;28;20028;-74
2021/08/28 00:22:48;;;;;;;13.10;7.60;;;;;;;12.07;100.00;95822.97;1044681;28;20024;-74
2021/08/28 00:23:18;;;;;;;16.73;8.70;;;;;;;12.06;100.00;95824.06;1040415;28;20100;-74
2021/08/28 00:23:48;;;;;;;11.87;7.87;;;;;;;12.07;100.00;95816.81;1044658;28;20504;-74
2021/08/28 00:24:19;;;;;;;10.50;7.60;;;;;;;12.06;100.00;95824.06;1044455;28;20029;-74
2021/08/28 00:24:49;;;;;;;13.47;8.10;;;;;;;12.07;100.00;95827.53;1044621;28;20021;-74
2021/08/28 00:25:20;;;;;;;12.70;7.77;;;;;;;12.06;100.00;95821.38;1044598;28;20021;-74
2021/08/28 00:25:50;;;;;;;12.80;8.13;;;;;;;12.05;100.00;95827.81;1036512;28;20037;-73
2021/08/28 00:26:20;;;;;;;10.87;7.83;;;;;;;12.01;100.00;95820.63;1036518;28;20029;-74
2021/08/28 00:26:51;;;;;;;12.33;7.70;;;;;;;12.02;100.00;95824.91;1036446;28;20032;-74
2021/08/28 00:27:21;;;;;;;10.40;7.63;;;;;;;12.00;100.00;95819.03;1036519;28;20442;-74
2021/08/28 00:27:52;;;;;;;12.70;7.73;;;;;;;12.00;100.00;95814.47;1044635;28;20512;-74
2021/08/28 00:28:23;;;;;;;10.70;8.17;;;;;;;12.02;100.00;95819.53;1040478;28;20032;-74
2021/08/28 00:28:53;;;;;;;13.37;8.67;;;;;;;12.04;100.00;95825.44;1040580;28;20033;-74
2021/08/28 00:29:23;;;;;;;14.07;8.73;;;;;;;12.04;100.00;95817.41;1040423;28;20083;-72
2021/08/28 00:29:54;;;;;;;13.37;8.20;;;;;;;12.00;100.00;95814.47;1040685;28;20502;-71
2021/08/28 00:30:24;;;;;;;11.73;8.03;;;;;;;12.02;100.00;95814.97;1044680;28;20437;-73
2021/08/28 00:30:56;;;;;;;10.73;7.93;;;;;;;12.05;100.00;95819.00;1044957;28;20104;-72
2021/08/28 00:31:26;;;;;;;12.40;8.35;;;;;;;12.03;100.00;95816.59;1044950;28;20048;-72
2021/08/28 00:31:56;;;;;;;14.33;8.50;;;;;;;12.05;100.00;95819.00;1044933;28;20458;-72
2021/08/28 00:32:27;;;;;;;11.03;7.80;;;;;;;12.07;100.00;95817.59;1044667;28;20017;-72
2021/08/28 00:33:07;;;;;;;9.50;7.27;;;;;;;12.02;100.00;95812.31;1044956;28;20025;-73
2021/08/28 00:33:38;;;;;;;;;;;;;;;12.01;100.00;95809.91;1045118;28;20132;-72
2021/08/28 00:34:08;;;;;;;11.87;7.90;;;;;;;12.01;100.00;95807.22;1044595;28;19999;-73
2021/08/28 00:34:38;;;;;;;13.07;8.20;;;;;;;12.01;100.00;95818.75;1044658;28;20028;-73
2021/08/28 00:35:09;;;;;;;14.30;8.57;;;;;;;12.00;100.00;95822.50;1044668;28;20025;-72
2021/08/28 00:35:40;;;;;;;13.47;8.47;;;;;;;11.99;100.00;95812.88;1044885;28;20027;-73
2021/08/28 00:36:10;;;;;;;11.93;8.20;;;;;;;11.91;100.00;95811.59;1044972;28;20021;-72
2021/08/28 00:36:41;;;;;;;11.17;8.07;;;;;;;11.97;100.00;95810.47;1044910;28;20361;-72
2021/08/28 00:37:11;;;;;;;14.60;8.50;;;;;;;12.01;100.00;95816.06;1044966;28;20461;-73
2021/08/28 00:37:41;;;;;;;12.03;7.93;;;;;;;12.02;100.00;95814.97;1044925;28;20021;-72
2021/08/28 00:38:12;;;;;;;11.43;7.93;;;;;;;12.01;100.00;95809.91;1044943;28;20033;-72
2021/08/28 00:38:42;;;;;;;11.67;8.23;;;;;;;12.03;100.00;95813.09;1044905;28;20035;-72
2021/08/28 00:39:13;;;;;;;12.83;8.00;;;;;;;12.04;100.00;95810.16;1044610;28;20021;-72
2021/08/28 00:39:43;;;;;;;12.57;8.80;;;;;;;12.03;100.00;95805.88;1040453;28;20030;-72
2021/08/28 00:40:14;;;;;;;11.33;7.90;;;;;;;12.07;100.00;95814.94;1036412;28;20025;-72
2021/08/28 00:40:44;;;;;;;12.77;7.93;;;;;;;12.07;100.00;95814.94;1036469;28;20021;-72
2021/08/28 00:41:14;;;;;;;11.60;8.13;;;;;;;12.08;100.00;95815.72;1040474;28;20068;-72
2021/08/28 00:41:45;;;;;;;13.80;8.33;;;;;;;12.07;100.00;95806.09;1040624;28;20018;-72
2021/08/28 00:42:15;;;;;;;11.50;8.07;;;;;;;12.10;100.00;95810.91;1040529;28;20033;-72
2021/08/28 00:42:47;;;;;;;17.07;8.70;;;;;;;12.11;100.00;95813.28;1040032;28;20021;-73
2021/08/28 00:43:17;;;;;;;12.52;7.78;;;;;;;12.08;100.00;95810.38;1036574;28;20109;-72
2021/08/28 00:43:48;;;;;;;13.93;8.67;;;;;;;12.03;100.00;95811.25;1036334;28;20025;-72
2021/08/28 00:44:18;;;;;;;12.70;7.87;;;;;;;12.05;100.00;95811.75;1028265;28;20417;-72
2021/08/28 00:44:48;;;;;;;13.33;8.40;;;;;;;12.06;100.00;95807.19;1024209;28;20023;-72
2021/08/28 00:45:25;;;;;;;12.37;8.03;;;;;;;12.03;100.00;95807.75;1024205;28;20023;-72
2021/08/28 00:45:56;;;;;;;14.35;8.77;;;;;;;11.99;100.00;95804.84;1030017;28;20026;-73
2021/08/28 00:46:26;;;;;;;12.83;7.97;;;;;;;11.99;100.00;95806.72;1032984;28;20467;-72
2021/08/28 00:46:56;;;;;;;12.40;8.00;;;;;;;12.00;100.00;95809.13;1037271;28;20086;-72
2021/08/28 00:47:27;;;;;;;12.93;8.00;;;;;;;12.03;100.00;95807.75;1040477;28;20026;-72
2021/08/28 00:48:24;;;;;;;11.07;7.90;;;;;;;12.07;100.00;95814.13;1040498;28;20025;-72
2021/08/28 00:48:54;;;;;;;16.35;8.50;;;;;;;12.08;100.00;95813.03;1042545;28;20131;-72
2021/08/28 00:49:25;;;;;;;10.97;7.47;;;;;;;12.11;100.00;95813.28;1040183;28;20021;-72
2021/08/28 00:49:55;;;;;;;12.30;7.97;;;;;;;12.11;100.00;95813.28;1036398;28;20454;-72
2021/08/28 00:50:26;;;;;;;12.00;8.53;;;;;;;12.09;100.00;95801.28;1032333;28;20041;-73
2021/08/28 00:50:56;;;;;;;12.07;8.10;;;;;;;12.06;100.00;95809.88;1032285;28;20019;-73
2021/08/28 00:51:27;;;;;;;10.97;8.10;;;;;;;12.06;100.00;95812.53;1028273;28;20027;-73
2021/08/28 00:51:58;;;;;;;11.40;7.83;;;;;;;12.07;100.00;95808.78;1032482;28;20026;-73
2021/08/28 00:52:28;;;;;;;12.57;8.35;;;;;;;12.07;100.00;95809.56;1036496;28;20025;-73
2021/08/28 00:53:00;;;;;;;12.70;8.80;;;;;;;12.04;100.00;95806.69;1032435;28;20026;-73
2021/08/28 00:53:31;;;;;;;11.13;7.70;;;;;;;12.05;100.00;95809.06;1032257;28;20128;-73
2021/08/28 00:54:01;;;;;;;12.18;8.25;;;;;;;12.03;100.00;95803.22;1028332;28;20107;-73
2021/08/28 00:54:35;;;;;;;14.43;8.00;;;;;;;12.03;100.00;95807.75;1024783;28;20489;-73
2021/08/28 00:55:06;;;;;;;13.77;8.40;;;;;;;12.02;100.00;95798.91;1024822;28;20023;-73
2021/08/28 00:55:36;;;;;;;11.90;8.03;;;;;;;12.02;100.00;95806.16;1028793;28;20035;-73
2021/08/28 00:56:07;;;;;;;13.40;8.30;;;;;;;12.02;100.00;95806.16;1032367;28;20546;-73
2021/08/28 00:56:39;;;;;;;12.90;8.47;;;;;;;12.03;100.00;95805.88;1028472;28;20464;-73
2021/08/28 00:57:09;;;;;;;12.93;8.55;;;;;;;12.05;100.00;95803.72;1032344;28;20039;-73
2021/08/28 00:57:40;;;;;;;14.77;8.20;;;;;;;12.09;100.00;95803.94;1028523;28;20054;-73
2021/08/28 00:58:10;;;;;;;14.43;8.20;;;;;;;12.10;100.00;95802.88;1028247;28;20118;-73
2021/08/28 00:58:41;;;;;;;14.73;8.83;;;;;;;12.09;100.00;95809.31;1031977;28;20534;-73
2021/08/28 00:59:13;;;;;;;13.55;8.13;;;;;;;12.11;100.00;95804.47;1036565;28;20483;-73
2021/08/28 00:59:43;;;;;;;13.60;8.57;;;;;;;12.09;100.00;95802.06;1040716;28;20112;-74
2021/08/28 01:00:14;;;;;;;11.37;7.80;;;;;;;12.12;100.00;95804.16;1040703;28;20453;-74
2021/08/28 01:00:51;;;;;;;12.60;8.73;;;;;;;12.15;100.00;95797.44;1044285;28;20523;-74
2021/08/28 01:01:22;;;;;;;12.02;8.90;;;;;;;12.18;100.00;95802.22;1031574;28;20098;-74
2021/08/28 01:01:53;;;;;;;12.07;8.00;;;;;;;12.17;100.00;95797.97;1033334;28;20539;-74
2021/08/28 01:02:23;;;;;;;11.67;8.60;;;;;;;12.16;100.00;95809.75;1028362;28;20030;-72
2021/08/28 01:02:54;;;;;;;12.07;8.47;;;;;;;12.14;100.00;95806.56;1025586;28;20027;-71
2021/08/28 01:03:26;;;;;;;12.43;8.27;;;;;;;12.15;100.00;95798.25;1028255;28;20469;-71
2021/08/28 01:03:59;;;;;;;14.18;8.15;;;;;;;12.15;100.00;95802.81;1028626;28;20114;-71
2021/08/28 01:04:31;;;;;;;11.85;8.15;;;;;;;12.19;100.00;95793.13;1032312;28;20169;-72
2021/08/28 01:05:06;;;;;;;12.15;7.93;;;;;;;12.18;100.00;95804.91;1031986;28;20022;-71
2021/08/28 01:06:03;;;;;;;9.98;8.07;;;;;;;12.13;100.00;95799.59;1034797;28;20137;-71
2021/08/28 01:06:36;;;;;;;11.32;7.78;;;;;;;12.16;100.00;95793.69;1036026;28;20037;-74
2021/08/28 01:07:10;;;;;;;13.48;8.55;;;;;;;12.16;100.00;95801.72;1036247;28;20026;-74
2021/08/28 01:08:00;;;;;;;11.43;8.00;;;;;;;12.15;100.00;95802.81;1036338;28;20108;-74
2021/08/28 01:08:45;;;;;;;12.30;7.82;;;;;;;12.13;100.00;95807.63;1036200;28;20513;-74
2021/08/28 01:09:19;;;;;;;12.00;7.80;;;;;;;12.13;100.00;95800.44;1037070;28;20030;-74
2021/08/28 01:09:54;;;;;;;13.40;8.15;;;;;;;12.12;100.00;95804.16;1036321;28;20581;-74
2021/08/28 01:10:27;;;;;;;15.35;7.75;;;;;;;12.15;100.00;95802.81;1032304;28;20534;-74
2021/08/28 01:11:04;;;;;;;14.75;8.57;;;;;;;12.17;100.00;95801.44;1032318;28;20502;-74
2021/08/28 01:11:40;;;;;;;12.13;8.25;;;;;;;12.20;100.00;95805.44;1032266;28;20424;-74
2021/08/28 01:12:19;;;;;;;11.98;8.45;;;;;;;12.19;100.00;95795.81;1028127;28;20549;-74
2021/08/28 01:12:49;;;;;;;11.25;7.95;;;;;;;12.20;100.00;95806.22;1028212;28;20034;-74
2021/08/28 01:13:20;;;;;;;12.60;8.33;;;;;;;12.15;100.00;95800.94;1032075;28;20022;-74
2021/08/28 01:13:54;;;;;;;12.47;8.07;;;;;;;12.14;100.00;95802.03;1032253;28;20387;-74
2021/08/28 01:14:26;;;;;;;11.77;8.20;;;;;;;12.12;100.00;95806.84;1028292;28;20459;-74
2021/08/28 01:14:59;;;;;;;13.60;8.40;;;;;;;12.08;100.00;95797.81;1033048;28;20023;-74
2021/08/28 01:15:29;;;;;;;13.05;8.25;;;;;;;12.11;100.00;95791.06;1033366;28;20138;-74
2021/08/28 01:16:00;;;;;;;13.00;7.63;;;;;;;12.10;100.00;95800.97;1024134;29;20076;-73
2021/08/28 01:16:30;;;;;;;11.57;8.03;;;;;;;12.12;100.00;95798.81;1024206;29;20019;-73
2021/08/28 01:17:05;;;;;;;13.80;8.23;;;;;;;12.14;100.00;95791.31;1024262;29;20019;-73
2021/08/28 01:17:36;;;;;;;11.10;7.85;;;;;;;12.19;100.00;95790.44;1025319;28;20484;-73
2021/08/28 01:18:07;;;;;;;16.35;8.13;;;;;;;12.20;100.00;95803.56;1028639;28;20159;-73
2021/08/28 01:18:39;;;;;;;12.07;8.57;;;;;;;12.19;100.00;95809.22;1032976;28;20050;-73
2021/08/28 01:19:14;;;;;;;12.43;7.72;;;;;;;12.17;100.00;95797.97;1035460;28;20022;-74
2021/08/28 01:20:08;;;;;;;10.85;7.70;;;;;;;12.15;100.00;95792.09;1027927;28;20027;-73
2021/08/28 01:20:47;;;;;;;12.82;8.05;;;;;;;12.19;100.00;95801.97;1027916;28;20050;-73
2021/08/28 01:21:32;;;;;;;14.43;8.70;;;;;;;12.14;100.00;95804.69;1024689;28;20032;-73
2021/08/28 01:22:03;;;;;;;11.93;8.60;;;;;;;12.16;100.00;95799.84;1028249;28;20067;-73
2021/08/28 01:22:36;;;;;;;13.27;8.48;;;;;;;12.18;100.00;95791.50;1028198;28;20484;-73
2021/08/28 01:23:06;;;;;;;11.48;8.05;;;;;;;12.18;100.00;95803.06;1032138;28;20101;-73
2021/08/28 01:23:37;;;;;;;12.20;8.23;;;;;;;12.18;100.00;95791.50;1028144;28;20026;-73
2021/08/28 01:24:07;;;;;;;12.37;8.37;;;;;;;12.20;100.00;95797.41;1032195;28;20014;-71
2021/08/28 01:24:39;;;;;;;13.80;7.67;;;;;;;12.23;100.00;95803.00;1028203;28;20027;-71
2021/08/28 01:25:09;;;;;;;12.60;9.30;;;;;;;12.19;100.00;95801.16;1029037;28;20019;-72
2021/08/28 01:25:40;;;;;;;17.57;8.50;;;;;;;12.22;100.00;95797.91;1040279;28;20041;-73
2021/08/28 01:26:14;;;;;;;11.90;8.10;;;;;;;12.19;100.00;95803.84;1032428;28;20018;-73
2021/08/28 01:26:56;;;;;;;13.43;7.88;;;;;;;12.16;100.00;95799.84;1036251;28;20096;-73
2021/08/28 01:27:36;;;;;;;12.20;8.15;;;;;;;12.17;100.00;95795.28;1034167;28;20033;-72
2021/08/28 01:28:10;;;;;;;13.07;8.20;;;;;;;12.16;100.00;95799.84;1038870;28;20436;-72
2021/08/28 01:28:51;;;;;;;10.80;7.68;;;;;;;12.16;100.00;95799.84;1040273;28;20167;-73
2021/08/28 01:29:23;;;;;;;10.98;7.97;;;;;;;12.17;100.00;95801.44;1038818;28;20017;-73
2021/08/28 01:29:53;;;;;;;11.15;7.63;;;;;;;12.18;100.00;95805.72;1037170;28;20014;-73
2021/08/28 01:30:24;;;;;;;11.70;8.73;;;;;;;12.18;100.00;95803.06;1032115;28;20022;-74
2021/08/28 01:30:54;;;;;;;15.63;8.30;;;;;;;12.16;100.00;95799.84;1028508;28;20018;-73
2021/08/28 01:31:25;;;;;;;12.67;8.80;;;;;;;12.18;100.00;95796.88;1032237;28;20018;-73
2021/08/28 01:31:55;;;;;;;11.37;8.20;;;;;;;12.16;100.00;95799.84;1036219;28;20018;-73
2021/08/28 01:32:26;;;;;;;13.57;8.23;;;;;;;12.16;100.00;95810.56;1036231;28;20080;-73
2021/08/28 01:32:57;;;;;;;15.13;8.70;;;;;;;12.16;100.00;95799.84;1032218;28;20044;-73
2021/08/28 01:33:28;;;;;;;13.18;8.50;;;;;;;12.13;100.00;95807.63;1032126;28;20134;-73
2021/08/28 01:33:58;;;;;;;13.03;8.87;;;;;;;12.10;100.00;95800.19;1024645;28;20090;-73
2021/08/28 01:34:29;;;;;;;12.17;8.83;;;;;;;12.15;100.00;95810.84;1024540;28;20483;-73
2021/08/28 01:34:59;;;;;;;12.03;8.90;;;;;;;12.14;100.00;95803.91;1032003;28;20486;-73
2021/08/28 01:35:30;;;;;;;14.93;8.63;;;;;;;12.18;100.00;95803.06;1032448;28;20069;-73
2021/08/28 01:36:01;;;;;;;11.80;8.83;;;;;;;12.22;100.00;95801.38;1036333;28;20018;-73
2021/08/28 01:36:31;;;;;;;11.93;8.17;;;;;;;12.18;100.00;95805.72;1032205;28;20014;-73
2021/08/28 01:37:01;;;;;;;13.83;8.80;;;;;;;12.21;100.00;95807.03;1032146;28;20018;-73
2021/08/28 01:37:32;;;;;;;14.13;8.50;;;;;;;12.23;100.00;95807.53;1024274;28;20532;-73
2021/08/28 01:38:03;;;;;;;12.10;8.80;;;;;;;12.25;100.00;95801.91;1024140;28;20026;-74
2021/08/28 01:38:34;;;;;;;15.43;9.03;;;;;;;12.20;100.00;95803.56;1024261;28;20110;-73
2021/08/28 01:39:05;;;;;;;17.85;9.55;;;;;;;12.23;100.00;95802.16;1024446;28;20019;-73
2021/08/28 01:39:35;;;;;;;11.07;7.83;;;;;;;12.22;100.00;95805.94;1024368;28;20034;-73
2021/08/28 01:40:06;;;;;;;14.10;8.20;;;;;;;12.22;100.00;95805.94;1027904;28;20011;-73
2021/08/28 01:40:36;;;;;;;13.87;9.00;;;;;;;12.19;100.00;95799.28;1028400;28;20023;-73
2021/08/28 01:41:07;;;;;;;13.90;8.57;;;;;;;12.20;100.00;95795.50;1032154;28;20085;-73
2021/08/28 01:41:38;;;;;;;11.90;8.23;;;;;;;12.23;100.00;95802.16;1032242;28;20101;-73
2021/08/28 01:42:08;;;;;;;13.63;8.20;;;;;;;12.20;100.00;95805.44;1028280;28;20018;-73
2021/08/28 01:42:39;;;;;;;11.73;7.80;;;;;;;12.22;100.00;95805.94;1032150;28;20020;-73
2021/08/28 01:43:09;;;;;;;12.67;9.00;;;;;;;12.23;100.00;95800.31;1032212;28;20037;-73
2021/08/28 01:43:39;;;;;;;11.13;8.00;;;;;;;12.25;100.00;95808.06;1032264;28;20025;-73
2021/08/28 01:44:11;;;;;;;13.20;8.13;;;;;;;12.18;100.00;95805.72;1032266;28;20019;-73
2021/08/28 01:44:48;;;;;;;15.45;8.48;;;;;;;12.22;100.00;95800.59;1032183;28;20026;-73
2021/08/28 01:45:21;;;;;;;12.30;8.85;;;;;;;12.20;100.00;95803.56;1037066;28;20026;-73
2021/08/28 01:45:51;;;;;;;14.43;8.73;;;;;;;12.19;100.00;95807.31;1032166;28;20050;-73
2021/08/28 01:46:22;;;;;;;10.03;7.83;;;;;;;12.16;100.00;95807.88;1033382;28;20333;-73
2021/08/28 01:46:53;;;;;;;14.13;8.97;;;;;;;12.15;100.00;95811.66;1028114;28;20015;-72
2021/08/28 01:47:23;;;;;;;12.33;8.87;;;;;;;12.17;100.00;95812.16;1028417;28;20312;-73
2021/08/28 01:47:54;;;;;;;12.63;9.17;;;;;;;12.16;100.00;95809.75;1032124;28;20069;-73
2021/08/28 01:48:24;;;;;;;12.73;9.13;;;;;;;12.17;100.00;95801.44;1032095;28;20026;-73
2021/08/28 01:48:55;;;;;;;10.80;8.10;;;;;;;12.18;100.00;95812.94;1040210;28;20028;-72
2021/08/28 01:49:25;;;;;;;14.30;9.03;;;;;;;12.20;100.00;95808.13;1040253;28;20028;-72
2021/08/28 01:49:56;;;;;;;12.60;8.67;;;;;;;12.21;100.00;95807.03;1040088;28;20025;-73
2021/08/28 01:50:26;;;;;;;17.27;8.90;;;;;;;12.23;100.00;95803.00;1039790;28;20045;-73
2021/08/28 01:50:57;;;;;;;10.70;8.20;;;;;;;12.25;100.00;95802.69;1036176;28;20533;-73
2021/08/28 01:51:28;;;;;;;14.07;8.40;;;;;;;12.26;100.00;95798.94;1036055;28;20018;-72
2021/08/28 01:51:58;;;;;;;13.15;9.15;;;;;;;12.22;100.00;95797.91;1036301;28;20033;-72
2021/08/28 01:52:29;;;;;;;11.93;8.77;;;;;;;12.15;100.00;95797.44;1036357;28;20454;-74
2021/08/28 01:52:59;;;;;;;16.00;8.87;;;;;;;12.13;100.00;95804.97;1040210;28;20386;-74
2021/08/28 01:53:29;;;;;;;13.13;8.90;;;;;;;12.14;100.00;95810.06;1036239;28;20088;-73
2021/08/28 01:54:00;;;;;;;12.83;8.77;;;;;;;12.14;100.00;95801.22;1040317;28;20592;-73
2021/08/28 01:54:30;;;;;;;14.40;9.57;;;;;;;12.15;100.00;95800.13;1040206;28;20064;-73
2021/08/28 01:55:01;;;;;;;12.80;8.67;;;;;;;12.14;100.00;95798.53;1040275;28;20024;-73
2021/08/28 01:55:31;;;;;;;12.80;8.37;;;;;;;12.15;100.00;95797.44;1044258;28;20021;-73
2021/08/28 01:56:02;;;;;;;13.47;8.93;;;;;;;12.16;100.00;95799.03;1036178;28;20085;-73
2021/08/28 01:56:32;;;;;;;16.07;9.13;;;;;;;12.15;100.00;95800.94;1036099;28;20053;-73
2021/08/28 01:57:03;;;;;;;16.93;8.77;;;;;;;12.12;100.00;95795.34;1036051;28;20018;-73
2021/08/28 01:57:33;;;;;;;12.37;8.60;;;;;;;12.16;100.00;95799.03;1032222;28;20050;-73
2021/08/28 01:58:05;;;;;;;15.20;9.13;;;;;;;12.12;100.00;95795.34;1032035;28;20539;-73
2021/08/28 01:58:35;;;;;;;12.95;9.15;;;;;;;12.13;100.00;95807.63;1032046;28;20032;-74
2021/08/28 01:59:06;;;;;;;12.47;8.27;;;;;;;12.10;100.00;95800.97;1028259;28;20448;-74
2021/08/28 01:59:37;;;;;;;12.07;9.27;;;;;;;12.11;100.00;95801.78;1028548;28;20483;-74
2021/08/28 02:00:08;;;;;;;14.88;8.60;;;;;;;12.08;100.00;95805.00;1032418;28;20392;-73
2021/08/28 02:00:38;;;;;;;13.50;8.70;;;;;;;12.03;100.00;95805.06;1035856;28;20071;-73
2021/08/28 02:01:09;;;;;;;13.17;9.53;;;;;;;12.02;100.00;95803.47;1036512;28;20037;-73
2021/08/28 02:01:39;;;;;;;12.43;8.53;;;;;;;12.02;100.00;95804.25;1040175;28;20013;-73
2021/08/28 02:02:10;;;;;;;13.77;9.27;;;;;;;12.03;100.00;95805.88;1040151;28;20017;-73
2021/08/28 02:02:40;;;;;;;14.03;9.80;;;;;;;12.01;100.00;95807.22;1040698;28;20017;-73
2021/08/28 02:03:10;;;;;;;13.43;8.97;;;;;;;11.99;100.00;95804.06;1044324;28;20454;-73
2021/08/28 02:03:41;;;;;;;12.60;8.67;;;;;;;12.01;100.00;95807.22;1048348;28;20020;-73
2021/08/28 02:04:11;;;;;;;14.40;9.60;;;;;;;11.99;100.00;95810.22;1044573;28;20009;-71
2021/08/28 02:04:42;;;;;;;12.70;8.83;;;;;;;12.01;100.00;95810.72;1044287;28;20024;-72
2021/08/28 02:05:12;;;;;;;14.50;9.23;;;;;;;12.02;100.00;95809.63;1044286;28;20039;-71
2021/08/28 02:05:45;;;;;;;14.70;9.70;;;;;;;12.00;100.00;95802.97;1040048;28;20025;-72
2021/08/28 02:06:25;;;;;;;13.60;9.30;;;;;;;12.00;100.00;95806.44;1040185;28;20029;-71
2021/08/28 02:07:04;;;;;;;12.45;8.70;;;;;;;12.00;100.00;95805.66;1036113;28;20136;-71
2021/08/28 02:07:36;;;;;;;13.32;8.90;;;;;;;11.98;100.00;95808.63;1031925;28;20058;-72
2021/08/28 02:08:07;;;;;;;14.27;9.35;;;;;;;11.97;100.00;95810.47;1037656;28;20061;-72
2021/08/28 02:08:46;;;;;;;15.63;9.90;;;;;;;11.99;100.00;95815.56;1037639;28;20029;-72
2021/08/28 02:09:31;;;;;;;14.15;9.27;;;;;;;12.00;100.00;95809.13;1036086;28;20044;-71
2021/08/28 02:10:13;;;;;;;16.63;11.25;;;;;;;11.97;100.00;95807.78;1035405;28;20104;-71
2021/08/28 02:10:51;;;;;;;14.02;10.02;;;;;;;11.93;100.00;95800.63;1036029;28;20696;-72
2021/08/28 02:11:27;;;;;;;14.30;10.23;;;;;;;11.92;100.00;95804.38;1032016;28;20069;-71
2021/08/28 02:11:58;;;;;;;15.77;10.20;;;;;;;11.90;100.00;95807.34;1027961;28;20030;-72
2021/08/28 02:12:39;;;;;;;16.48;10.63;;;;;;;11.88;100.00;95801.47;1032976;28;20018;-72
2021/08/28 02:13:13;;;;;;;16.45;10.68;;;;;;;11.86;100.00;95806.28;1041405;28;20017;-72
2021/08/28 02:13:49;;;;;;;15.60;10.95;;;;;;;11.87;100.00;95801.75;1044363;28;20048;-70
2021/08/28 02:14:21;;;;;;;16.98;11.00;;;;;;;11.90;100.00;95799.31;1040082;28;20113;-71
2021/08/28 02:14:58;;;;;;;15.35;9.85;;;;;;;11.89;100.00;95796.91;1036122;28;20021;-71
2021/08/28 02:15:44;;;;;;;15.02;10.70;;;;;;;11.88;100.00;95796.13;1035972;28;20153;-71
2021/08/28 02:16:16;;;;;;;17.00;11.50;;;;;;;11.84;100.00;95795.09;1039491;28;20100;-72
2021/08/28 02:16:46;;;;;;;17.98;11.80;;;;;;;11.85;100.00;95796.66;1043503;28;20527;-71
2021/08/28 02:17:17;;;;;;;20.03;11.73;;;;;;;11.83;100.00;95798.06;1040239;28;20048;-72
2021/08/28 02:18:07;;;;;;;15.77;10.63;;;;;;;11.85;100.00;95796.66;1040063;28;20029;-71
2021/08/28 02:18:52;;;;;;;18.08;10.38;;;;;;;11.84;100.00;95797.75;1035976;28;20105;-71
2021/08/28 02:19:28;;;;;;;17.42;10.95;;;;;;;11.80;100.00;95798.56;1040643;28;20076;-71
2021/08/28 02:20:03;;;;;;;15.38;10.57;;;;;;;11.76;100.00;95794.84;1035785;28;20473;-71
2021/08/28 02:20:35;;;;;;;17.77;10.77;;;;;;;11.74;100.00;95792.47;1034834;28;20049;-71
2021/08/28 02:21:05;;;;;;;15.18;10.43;;;;;;;11.76;100.00;95795.66;1032015;28;20115;-71
2021/08/28 02:21:36;;;;;;;16.30;10.47;;;;;;;11.78;100.00;95792.72;1027987;28;20023;-71
2021/08/28 02:22:10;;;;;;;13.13;9.30;;;;;;;11.74;100.00;95794.34;1028185;28;20054;-71
2021/08/28 02:22:47;;;;;;;15.38;9.75;;;;;;;11.70;100.00;95791.44;1027984;28;20088;-71
2021/08/28 02:23:22;;;;;;;14.70;9.65;;;;;;;11.69;100.00;95795.19;1026963;28;20509;-71
2021/08/28 02:24:02;;;;;;;15.68;10.13;;;;;;;11.67;100.00;95800.03;1030038;28;20516;-71
2021/08/28 02:24:32;;;;;;;18.20;11.15;;;;;;;11.71;100.00;95793.00;1027909;28;20400;-71
2021/08/28 02:25:06;;;;;;;19.97;10.30;;;;;;;11.73;100.00;95796.22;1030504;28;20030;-71
2021/08/28 02:25:49;;;;;;;21.52;11.48;;;;;;;11.73;100.00;95806.16;1031780;28;20018;-72
2021/08/28 02:26:22;;;;;;;14.30;10.93;;;;;;;11.69;100.00;95795.19;1035478;28;20468;-71
2021/08/28 02:26:56;;;;;;;14.73;9.68;;;;;;;11.67;100.00;95794.69;1036070;28;20360;-71
2021/08/28 02:27:31;;;;;;;16.13;10.50;;;;;;;11.71;100.00;95795.69;1032023;28;20026;-71
2021/08/28 02:28:06;;;;;;;15.68;10.05;;;;;;;11.72;100.00;95800.00;1034371;28;20391;-71
2021/08/28 02:28:44;;;;;;;17.40;10.63;;;;;;;11.73;100.00;95790.09;1037810;28;20093;-71